createdAt,value
2022-08-02T00:02:14.457Z,2.67
2022-08-02T00:04:44.554Z,2.65
2022-08-02T00:07:12.342Z,3.25
2022-08-02T00:09:40.379Z,2.75
2022-08-02T00:12:09.486Z,2.88
2022-08-02T00:14:39.222Z,2.90
2022-08-02T00:17:07.104Z,2.60
2022-08-02T00:19:35.373Z,2.40
2022-08-02T00:22:03.024Z,2.55
2022-08-02T00:24:31.199Z,2.80
2022-08-02T00:26:58.975Z,2.78
2022-08-02T00:29:26.718Z,2.50
2022-08-02T00:31:58.705Z,2.88
2022-08-02T00:34:32.017Z,2.33
2022-08-02T00:37:02.738Z,2.58
2022-08-02T00:39:35.755Z,2.50
2022-08-02T00:42:04.326Z,2.63
2022-08-02T00:44:32.364Z,2.55
2022-08-02T00:47:19.197Z,2.78
2022-08-02T00:49:50.437Z,2.80
2022-08-02T00:52:18.205Z,2.78
2022-08-02T00:54:45.977Z,2.80
2022-08-02T00:57:13.680Z,2.70
2022-08-02T00:59:43.231Z,2.58
2022-08-02T01:02:30.582Z,2.65
2022-08-02T01:04:58.461Z,2.60
2022-08-02T01:07:26.150Z,2.30
2022-08-02T01:09:54.107Z,2.47
2022-08-02T01:12:21.899Z,2.72
2022-08-02T01:14:51.853Z,2.45
2022-08-02T01:18:02.976Z,2.92
2022-08-02T01:20:59.011Z,2.55
2022-08-02T01:23:41.105Z,2.73
2022-08-02T01:26:35.556Z,2.38
2022-08-02T01:29:09.673Z,3.47
2022-08-02T01:31:43.762Z,2.73
2022-08-02T01:34:18.597Z,2.60
2022-08-02T01:36:50.815Z,2.67
2022-08-02T01:39:27.324Z,2.80
2022-08-02T01:42:02.041Z,3.40
2022-08-02T01:47:31.784Z,3.70
2022-08-02T01:50:02.114Z,2.77
2022-08-02T01:52:33.699Z,3.00
2022-08-02T01:55:06.445Z,2.80
2022-08-02T01:57:41.969Z,3.17
2022-08-02T02:00:11.669Z,3.33
2022-08-02T02:02:44.373Z,3.10
2022-08-02T02:05:16.710Z,3.03
2022-08-02T02:07:46.731Z,3.50
2022-08-02T02:10:16.654Z,2.80
2022-08-02T02:12:47.071Z,3.00
2022-08-02T02:15:15.371Z,2.87
2022-08-02T02:17:52.888Z,3.00
2022-08-02T02:20:35.464Z,2.93
2022-08-02T02:23:04.039Z,2.70
2022-08-02T02:25:36.371Z,2.93
2022-08-02T02:31:22.784Z,2.70
2022-08-02T02:34:03.105Z,2.53
2022-08-02T02:36:31.892Z,2.77
2022-08-02T02:39:02.698Z,2.50
2022-08-02T02:41:30.595Z,2.43
2022-08-02T02:44:03.786Z,2.80
2022-08-02T02:46:33.270Z,2.20
2022-08-02T02:49:03.077Z,2.77
2022-08-02T02:51:31.010Z,2.10
2022-08-02T02:54:32.388Z,2.40
2022-08-02T02:56:54.909Z,2.30
2022-08-02T02:59:22.873Z,2.70
2022-08-02T03:01:56.575Z,2.10
2022-08-02T03:04:55.460Z,2.37
2022-08-02T03:07:16.821Z,2.60
2022-08-02T03:09:44.970Z,2.77
2022-08-02T03:12:20.012Z,2.40
2022-08-02T03:14:54.418Z,2.97
2022-08-02T03:17:22.124Z,2.60
2022-08-02T03:19:51.289Z,3.23
2022-08-02T03:22:32.891Z,3.50
2022-08-02T03:25:00.557Z,2.67
2022-08-02T03:27:28.256Z,3.00
2022-08-02T03:29:56.017Z,2.97
2022-08-02T03:32:23.750Z,3.20
2022-08-02T03:34:55.909Z,3.17
2022-08-02T03:37:25.115Z,3.30
2022-08-02T03:39:54.744Z,2.83
2022-08-02T03:42:22.864Z,2.97
2022-08-02T03:44:51.563Z,2.93
2022-08-02T03:47:20.193Z,3.00
2022-08-02T03:49:48.495Z,3.30
2022-08-02T03:52:17.600Z,3.10
2022-08-02T03:54:46.111Z,2.90
2022-08-02T03:57:17.610Z,3.20
2022-08-02T03:59:47.226Z,3.17
2022-08-02T04:02:15.237Z,2.90
2022-08-02T04:04:42.973Z,3.50
2022-08-02T04:07:10.983Z,3.23
2022-08-02T04:09:40.558Z,2.73
2022-08-02T04:12:08.853Z,2.97
2022-08-02T04:14:39.030Z,3.10
2022-08-02T04:17:10.473Z,3.20
2022-08-02T04:19:40.609Z,3.40
2022-08-02T04:22:19.326Z,3.30
2022-08-02T04:25:01.521Z,3.00
2022-08-02T04:27:51.395Z,3.00
2022-08-02T04:30:18.521Z,3.30
2022-08-02T04:33:41.709Z,3.30
2022-08-02T04:36:10.664Z,3.30
2022-08-02T04:38:39.442Z,3.87
2022-08-02T04:41:08.487Z,3.13
2022-08-02T04:43:36.412Z,3.10
2022-08-02T04:46:07.214Z,3.30
2022-08-02T04:48:35.047Z,3.80
2022-08-02T04:51:02.714Z,3.40
2022-08-02T04:53:36.305Z,3.07
2022-08-02T04:56:04.053Z,3.30
2022-08-02T04:58:40.957Z,3.80
2022-08-02T05:01:08.918Z,3.27
2022-08-02T05:03:36.657Z,3.33
2022-08-02T05:06:04.521Z,3.07
2022-08-02T05:11:34.483Z,3.23
2022-08-02T05:14:05.500Z,3.83
2022-08-02T05:16:33.283Z,3.30
2022-08-02T05:19:03.632Z,3.03
2022-08-02T05:21:31.863Z,3.00
2022-08-02T05:23:59.762Z,3.10
2022-08-02T05:26:27.456Z,2.73
2022-08-02T05:28:55.194Z,2.90
2022-08-02T05:31:24.307Z,3.00
2022-08-02T05:33:52.364Z,2.87
2022-08-02T05:36:21.664Z,3.13
2022-08-02T05:41:36.099Z,4.10
2022-08-02T05:44:03.967Z,2.87
2022-08-02T05:46:33.014Z,3.20
2022-08-02T05:49:01.434Z,3.13
2022-08-02T05:51:35.955Z,3.27
2022-08-02T05:54:17.174Z,3.00
2022-08-02T05:56:57.263Z,3.07
2022-08-02T05:59:41.900Z,3.20
2022-08-02T06:02:30.587Z,3.60
2022-08-02T06:05:12.248Z,2.87
2022-08-02T06:07:43.001Z,3.23
2022-08-02T06:10:13.616Z,2.90
2022-08-02T06:12:45.655Z,3.20
2022-08-02T06:15:15.426Z,3.13
2022-08-02T06:17:48.658Z,2.97
2022-08-02T06:20:35.277Z,2.63
2022-08-02T06:23:13.865Z,3.13
2022-08-02T06:29:38.334Z,2.97
2022-08-02T06:32:08.869Z,2.40
2022-08-02T06:34:39.254Z,2.60
2022-08-02T06:37:15.526Z,2.60
2022-08-02T06:39:46.495Z,2.73
2022-08-02T06:42:27.306Z,2.90
2022-08-02T06:44:57.767Z,2.90
2022-08-02T06:47:26.223Z,3.07
2022-08-02T06:49:56.938Z,3.20
2022-08-02T06:52:28.889Z,2.97
2022-08-02T06:54:57.966Z,3.30
2022-08-02T06:57:25.705Z,2.55
2022-08-02T06:59:53.503Z,2.80
2022-08-02T07:02:21.370Z,3.00
2022-08-02T07:04:50.166Z,2.95
2022-08-02T07:07:19.300Z,3.07
2022-08-02T07:09:56.971Z,2.63
2022-08-02T07:12:30.338Z,2.72
2022-08-02T07:14:58.546Z,2.92
2022-08-02T07:17:26.581Z,2.90
2022-08-02T07:19:54.361Z,2.13
2022-08-02T07:22:24.418Z,2.75
2022-08-02T07:24:52.408Z,2.83
2022-08-02T07:27:20.300Z,2.58
2022-08-02T07:29:48.184Z,2.78
2022-08-02T07:32:16.519Z,2.75
2022-08-02T07:34:50.985Z,2.83
2022-08-02T07:37:54.176Z,3.13
2022-08-02T07:40:14.037Z,2.67
2022-08-02T07:42:43.904Z,2.90
2022-08-02T07:45:12.639Z,2.70
2022-08-02T07:47:41.222Z,3.22
2022-08-02T07:50:11.965Z,3.08
2022-08-02T07:52:41.627Z,2.55
2022-08-02T07:55:10.850Z,2.90
2022-08-02T07:57:43.891Z,2.70
2022-08-02T08:00:16.056Z,2.28
2022-08-02T08:02:44.669Z,2.70
2022-08-02T08:05:12.792Z,2.83
2022-08-02T08:07:41.927Z,2.25
2022-08-02T08:10:25.068Z,2.40
2022-08-02T08:13:03.309Z,2.97
2022-08-02T08:15:30.957Z,2.83
2022-08-02T08:17:59.593Z,2.40
2022-08-02T08:20:41.450Z,2.10
2022-08-02T08:23:10.549Z,1.60
2022-08-02T08:25:39.912Z,2.75
2022-08-02T08:28:09.313Z,1.50
2022-08-02T08:30:37.055Z,1.38
2022-08-02T08:33:04.818Z,1.67
2022-08-02T08:35:32.577Z,1.83
2022-08-02T08:38:04.171Z,1.30
2022-08-02T08:40:42.578Z,1.00
2022-08-02T08:43:10.381Z,1.35
2022-08-02T08:45:38.655Z,0.90
2022-08-02T08:48:12.754Z,1.40
2022-08-02T08:50:43.879Z,1.23
2022-08-02T08:53:13.682Z,1.10
2022-08-02T08:55:43.538Z,1.23
2022-08-02T08:58:13.316Z,1.88
2022-08-02T09:00:42.243Z,1.30
2022-08-02T09:03:10.706Z,1.63
2022-08-02T09:05:39.756Z,1.42
2022-08-02T09:10:51.256Z,1.08
2022-08-02T09:13:38.664Z,1.50
2022-08-02T09:20:09.035Z,1.00
2022-08-02T09:22:36.778Z,1.42
2022-08-02T09:25:04.832Z,1.10
2022-08-02T09:27:37.169Z,1.02
2022-08-02T09:30:15.369Z,0.88
2022-08-02T09:32:47.839Z,1.00
2022-08-02T09:36:06.635Z,1.10
2022-08-02T09:38:19.717Z,1.98
2022-08-02T09:40:47.403Z,1.10
2022-08-02T09:43:17.262Z,1.35
2022-08-02T09:45:44.992Z,0.95
2022-08-02T09:48:13.419Z,1.20
2022-08-02T09:50:42.679Z,0.80
2022-08-02T09:53:13.885Z,1.00
2022-08-02T09:55:42.692Z,0.90
2022-08-02T09:58:21.747Z,0.80
2022-08-02T10:00:56.929Z,0.77
2022-08-02T10:03:29.033Z,0.98
2022-08-02T10:06:05.344Z,0.93
2022-08-02T10:08:34.089Z,1.00
2022-08-02T10:11:03.282Z,1.10
2022-08-02T10:13:34.507Z,1.15
2022-08-02T10:16:03.539Z,1.08
2022-08-02T10:18:41.674Z,0.80
2022-08-02T10:21:14.877Z,1.08
2022-08-02T10:23:45.369Z,1.10
2022-08-02T10:26:18.506Z,1.00
2022-08-02T10:28:50.448Z,1.02
2022-08-02T10:31:21.884Z,1.10
2022-08-02T10:33:52.997Z,0.98
2022-08-02T10:36:23.546Z,1.05
2022-08-02T10:38:51.837Z,0.98
2022-08-02T10:41:48.051Z,1.42
2022-08-02T10:44:27.777Z,1.20
2022-08-02T10:47:24.056Z,0.98
2022-08-02T10:49:53.911Z,1.05
2022-08-02T10:52:22.848Z,1.13
2022-08-02T10:54:56.299Z,1.10
2022-08-02T10:57:26.313Z,1.10
2022-08-02T10:59:58.238Z,0.90
2022-08-02T11:02:43.313Z,1.23
2022-08-02T11:05:13.795Z,1.05
2022-08-02T11:07:47.466Z,1.00
2022-08-02T11:10:44.467Z,0.90
2022-08-02T11:13:15.002Z,1.25
2022-08-02T11:15:58.834Z,1.10
2022-08-02T11:19:02.160Z,1.17
2022-08-02T11:21:30.850Z,1.40
2022-08-02T11:24:29.314Z,1.00
2022-08-02T11:26:58.329Z,1.20
2022-08-02T11:29:39.782Z,1.05
2022-08-02T11:32:16.332Z,0.90
2022-08-02T11:34:46.620Z,1.10
2022-08-02T11:37:14.511Z,0.88
2022-08-02T11:39:51.175Z,1.40
2022-08-02T11:42:18.908Z,1.67
2022-08-02T11:44:46.853Z,1.25
2022-08-02T11:47:16.189Z,1.20
2022-08-02T11:49:44.671Z,1.25
2022-08-02T11:52:12.844Z,1.48
2022-08-02T11:54:42.341Z,1.00
2022-08-02T11:57:16.856Z,1.00
2022-08-02T11:59:50.178Z,1.85
2022-08-02T12:02:20.269Z,1.20
2022-08-02T12:04:57.255Z,1.15
2022-08-02T12:07:34.724Z,1.17
2022-08-02T12:10:06.158Z,1.00
2022-08-02T12:12:34.015Z,1.10
2022-08-02T12:15:01.721Z,1.00
2022-08-02T12:17:48.387Z,1.38
2022-08-02T12:20:17.164Z,0.80
2022-08-02T12:22:45.246Z,1.83
2022-08-02T12:25:34.725Z,1.00
2022-08-02T12:28:22.327Z,1.48
2022-08-02T12:30:52.662Z,1.52
2022-08-02T12:33:23.074Z,1.83
2022-08-02T12:35:51.019Z,1.40
2022-08-02T12:38:18.845Z,1.80
2022-08-02T12:40:47.005Z,1.00
2022-08-02T12:43:20.605Z,0.95
2022-08-02T12:45:50.834Z,1.00
2022-08-02T12:48:37.311Z,0.80
2022-08-02T12:51:20.175Z,1.00
2022-08-02T12:53:47.953Z,1.17
2022-08-02T12:56:29.203Z,0.70
2022-08-02T12:58:57.219Z,1.00
2022-08-02T13:01:27.173Z,1.10
2022-08-02T13:04:10.323Z,1.15
2022-08-02T13:06:44.504Z,1.67
2022-08-02T13:09:15.142Z,2.40
2022-08-02T13:11:43.845Z,1.08
2022-08-02T13:14:12.169Z,1.30
2022-08-02T13:16:39.941Z,1.48
2022-08-02T13:19:09.069Z,0.88
2022-08-02T13:21:40.391Z,1.20
2022-08-02T13:24:20.786Z,1.42
2022-08-02T13:26:58.910Z,1.35
2022-08-02T13:29:26.610Z,1.08
2022-08-02T13:31:54.369Z,1.55
2022-08-02T13:34:23.453Z,1.30
2022-08-02T13:36:51.213Z,1.10
2022-08-02T13:39:18.894Z,1.10
2022-08-02T13:41:46.720Z,0.93
2022-08-02T13:44:14.501Z,1.13
2022-08-02T13:46:45.524Z,0.93
2022-08-02T13:49:18.295Z,1.85
2022-08-02T13:51:48.855Z,1.13
2022-08-02T13:54:17.315Z,1.50
2022-08-02T13:56:45.541Z,1.00
2022-08-02T13:59:54.867Z,1.30
2022-08-02T14:02:01.194Z,1.27
2022-08-02T14:04:30.661Z,1.20
2022-08-02T14:06:59.994Z,1.20
2022-08-02T14:09:28.319Z,1.48
2022-08-02T14:11:56.023Z,1.33
2022-08-02T14:14:23.648Z,1.60
2022-08-02T14:16:51.375Z,1.55
2022-08-02T14:19:21.728Z,1.40
2022-08-02T14:21:50.323Z,1.58
2022-08-02T14:24:21.039Z,1.20
2022-08-02T14:26:49.550Z,1.17
2022-08-02T14:29:18.233Z,1.17
2022-08-02T14:31:46.083Z,0.85
2022-08-02T14:34:14.531Z,1.00
2022-08-02T14:36:42.398Z,1.30
2022-08-02T14:39:10.216Z,1.30
2022-08-02T14:41:59.962Z,1.05
2022-08-02T14:44:27.130Z,1.40
2022-08-02T14:46:54.974Z,1.27
2022-08-02T14:49:26.079Z,1.10
2022-08-02T14:51:54.861Z,1.02
2022-08-02T14:54:30.274Z,1.27
2022-08-02T14:57:02.395Z,1.13
2022-08-02T14:59:30.918Z,0.93
2022-08-02T15:01:59.434Z,1.40
2022-08-02T15:04:27.678Z,1.50
2022-08-02T15:06:55.955Z,1.40
2022-08-02T15:09:23.625Z,1.27
2022-08-02T15:11:51.376Z,1.17
2022-08-02T15:14:25.800Z,1.40
2022-08-02T15:16:56.953Z,1.33
2022-08-02T15:19:46.181Z,1.50
2022-08-02T15:22:15.838Z,1.80
2022-08-02T15:24:45.060Z,1.83
2022-08-02T15:27:14.773Z,2.28
2022-08-02T15:29:45.738Z,1.30
2022-08-02T15:32:14.487Z,1.40
2022-08-02T15:34:42.400Z,1.48
2022-08-02T15:37:10.121Z,1.67
2022-08-02T15:39:38.124Z,1.65
2022-08-02T15:42:06.065Z,1.63
2022-08-02T15:44:33.861Z,1.48
2022-08-02T15:47:03.264Z,1.17
2022-08-02T15:49:30.982Z,1.40
2022-08-02T15:51:58.860Z,1.58
2022-08-02T15:54:26.532Z,1.70
2022-08-02T15:56:54.389Z,1.77
2022-08-02T15:59:22.255Z,1.90
2022-08-02T16:01:49.979Z,1.45
2022-08-02T16:04:19.012Z,1.80
2022-08-02T16:06:46.723Z,1.33
2022-08-02T16:09:14.628Z,1.50
2022-08-02T16:11:42.379Z,1.30
2022-08-02T16:14:10.648Z,1.40
2022-08-02T16:16:40.197Z,1.30
2022-08-02T16:19:30.705Z,1.75
2022-08-02T16:21:57.359Z,1.40
2022-08-02T16:24:26.182Z,1.60
2022-08-02T16:26:54.182Z,1.60
2022-08-02T16:29:21.886Z,1.65
2022-08-02T16:31:49.786Z,1.70
2022-08-02T16:34:17.995Z,1.55
2022-08-02T16:36:46.434Z,1.88
2022-08-02T16:39:15.489Z,1.50
2022-08-02T16:41:51.124Z,1.42
2022-08-02T16:44:29.643Z,1.73
2022-08-02T16:47:11.425Z,2.80
2022-08-02T16:50:04.259Z,2.28
2022-08-02T16:52:28.099Z,1.50
2022-08-02T16:54:57.633Z,1.67
2022-08-02T16:57:42.721Z,1.73
2022-08-02T17:00:13.955Z,1.58
2022-08-02T17:02:43.354Z,1.75
2022-08-02T17:05:14.348Z,2.00
2022-08-02T17:08:07.790Z,1.70
2022-08-02T17:10:33.473Z,1.85
2022-08-02T17:13:10.707Z,2.35
2022-08-02T17:16:01.330Z,1.50
2022-08-02T17:18:28.538Z,1.80
2022-08-02T17:20:56.525Z,1.65
2022-08-02T17:24:04.170Z,1.35
2022-08-02T17:26:13.710Z,1.60
2022-08-02T17:28:56.493Z,1.52
2022-08-02T17:31:29.857Z,2.00
2022-08-02T17:33:58.436Z,1.30
2022-08-02T17:36:26.337Z,1.50
2022-08-02T17:38:54.085Z,1.50
2022-08-02T17:41:37.374Z,1.35
2022-08-02T17:44:06.691Z,1.65
2022-08-02T17:49:25.739Z,1.88
2022-08-02T17:52:49.545Z,1.90
2022-08-02T17:54:42.390Z,1.58
2022-08-02T17:57:12.774Z,1.35
2022-08-02T17:59:42.540Z,1.65
2022-08-02T18:02:11.280Z,1.50
2022-08-02T18:04:39.724Z,1.30
2022-08-02T18:07:09.865Z,1.60
2022-08-02T18:09:39.553Z,1.50
2022-08-02T18:12:14.394Z,1.38
2022-08-02T18:14:46.027Z,1.30
2022-08-02T18:17:19.021Z,2.00
2022-08-02T18:19:57.485Z,1.90
2022-08-02T18:22:31.405Z,1.42
2022-08-02T18:24:59.398Z,1.90
2022-08-02T18:27:28.461Z,1.60
2022-08-02T18:30:00.338Z,1.60
2022-08-02T18:33:53.885Z,1.38
2022-08-02T18:35:20.172Z,1.90
2022-08-02T18:37:56.667Z,1.67
2022-08-02T18:40:26.247Z,1.33
2022-08-02T18:42:55.357Z,1.60
2022-08-02T18:45:23.151Z,1.85
2022-08-02T18:47:51.528Z,2.00
2022-08-02T18:50:19.914Z,2.00
2022-08-02T18:52:48.810Z,1.52
2022-08-02T18:55:17.269Z,1.65
2022-08-02T18:58:17.962Z,1.92
2022-08-02T19:00:48.150Z,2.60
2022-08-02T19:03:20.098Z,1.70
2022-08-02T19:08:36.548Z,1.70
2022-08-02T19:11:04.628Z,2.03
2022-08-02T19:13:33.717Z,1.98
2022-08-02T19:16:03.825Z,1.63
2022-08-02T19:18:32.914Z,1.88
2022-08-02T19:21:05.504Z,1.58
2022-08-02T19:23:34.063Z,2.00
2022-08-02T19:26:03.114Z,2.17
2022-08-02T19:28:33.058Z,2.10
2022-08-02T19:31:01.453Z,2.35
2022-08-02T19:34:04.498Z,2.70
2022-08-02T19:36:18.093Z,2.60
2022-08-02T19:38:49.172Z,2.08
2022-08-02T19:41:22.102Z,2.10
2022-08-02T19:44:23.455Z,2.05
2022-08-02T19:46:41.558Z,3.03
2022-08-02T19:51:57.107Z,2.67
2022-08-02T19:54:54.589Z,1.83
2022-08-02T19:57:17.010Z,2.33
2022-08-02T19:59:49.577Z,2.10
2022-08-02T20:02:18.527Z,2.10
2022-08-02T20:04:50.479Z,2.47
2022-08-02T20:07:54.230Z,1.90
2022-08-02T20:10:11.199Z,1.90
2022-08-02T20:12:39.188Z,2.13
2022-08-02T20:15:14.441Z,6.00
2022-08-02T20:17:47.653Z,3.22
2022-08-02T20:20:17.576Z,3.15
2022-08-02T20:23:32.861Z,2.63
2022-08-02T20:25:54.268Z,3.08
2022-08-02T20:28:22.890Z,4.72
2022-08-02T20:30:51.881Z,3.20
2022-08-02T20:33:23.274Z,2.75
2022-08-02T20:38:40.470Z,4.07
2022-08-02T20:41:08.802Z,2.65
2022-08-02T20:43:36.756Z,2.13
2022-08-02T20:46:05.801Z,2.00
2022-08-02T20:48:33.570Z,2.10
2022-08-02T20:51:01.277Z,2.00
2022-08-02T20:53:54.924Z,2.28
2022-08-02T20:56:24.283Z,2.42
2022-08-02T20:58:52.622Z,3.00
2022-08-02T21:01:21.847Z,3.10
2022-08-02T21:03:58.494Z,3.10
2022-08-02T21:06:28.030Z,3.17
2022-08-02T21:08:56.058Z,2.85
2022-08-02T21:11:25.397Z,2.42
2022-08-02T21:14:06.956Z,2.70
2022-08-02T21:16:38.131Z,2.60
2022-08-02T21:19:09.557Z,2.40
2022-08-02T21:21:37.455Z,2.38
2022-08-02T21:24:06.004Z,2.35
2022-08-02T21:26:33.810Z,2.20
2022-08-02T21:29:03.736Z,2.63
2022-08-02T21:31:35.696Z,2.40
2022-08-02T21:34:21.933Z,2.92
2022-08-02T21:36:54.054Z,2.20
2022-08-02T21:39:21.749Z,2.20
2022-08-02T21:41:50.291Z,2.13
2022-08-02T21:44:19.444Z,2.10
2022-08-02T21:46:49.326Z,2.10
2022-08-02T21:49:20.201Z,2.03
2022-08-02T21:51:48.902Z,2.97
2022-08-02T21:54:20.331Z,2.47
2022-08-02T21:56:48.948Z,2.17
2022-08-02T21:59:17.842Z,2.72
2022-08-02T22:01:52.677Z,2.47
2022-08-02T22:04:22.860Z,2.40
2022-08-02T22:06:50.662Z,2.17
2022-08-02T22:09:44.452Z,2.65
2022-08-02T22:12:10.295Z,2.40
2022-08-02T22:14:44.266Z,2.42
2022-08-02T22:17:17.665Z,2.05
2022-08-02T22:19:54.007Z,2.15
2022-08-02T22:22:28.426Z,2.67
2022-08-02T22:24:58.019Z,2.03
2022-08-02T22:28:34.920Z,2.08
2022-08-02T22:30:15.999Z,2.95
2022-08-02T22:33:15.341Z,2.13
2022-08-02T22:35:44.896Z,2.72
2022-08-02T22:38:18.375Z,2.00
2022-08-02T22:40:47.082Z,2.50
2022-08-02T22:43:15.926Z,2.03
2022-08-02T22:46:37.174Z,2.50
2022-08-02T22:49:05.180Z,2.75
2022-08-02T22:51:35.714Z,3.00
2022-08-02T22:54:04.610Z,2.63
2022-08-02T22:56:39.516Z,2.83
2022-08-02T22:58:40.416Z,1.70
2022-08-02T22:58:57.683Z,1.70
2022-08-02T22:59:05.637Z,5.88
2022-08-02T22:59:08.351Z,2.90
2022-08-02T23:01:43.680Z,3.45
2022-08-02T23:04:11.491Z,2.75
2022-08-02T23:06:40.606Z,2.75
2022-08-02T23:09:08.399Z,3.17
2022-08-02T23:11:36.189Z,3.10
2022-08-02T23:14:03.902Z,2.42
2022-08-02T23:16:49.035Z,2.67
2022-08-02T23:19:34.537Z,2.90
2022-08-02T23:22:03.670Z,2.13
2022-08-02T23:24:33.211Z,2.08
2022-08-02T23:27:01.596Z,2.75
2022-08-02T23:29:29.481Z,2.53
2022-08-02T23:31:57.392Z,2.13
2022-08-02T23:34:26.931Z,2.25
2022-08-02T23:36:54.666Z,1.92
2022-08-02T23:39:23.773Z,2.20
2022-08-02T23:41:55.049Z,2.55
2022-08-02T23:44:23.663Z,2.40
2022-08-02T23:46:51.955Z,2.65
2022-08-02T23:49:19.799Z,2.63
2022-08-02T23:51:48.509Z,2.47
2022-08-02T23:54:16.327Z,2.28
2022-08-02T23:56:45.696Z,2.10
2022-08-02T23:59:13.955Z,2.60
